This is the latest recevied weather packets stored in our database for station/object KR4KUV. If no packets are shown the sender has not sent any weather packets the latest 10 day(s).
| Time | Temp. | Humidity | Pressure | Rain* | Wind** | Luminosity | Snow |
|---|---|---|---|---|---|---|---|
| 1787955071 | 20° C | 99% | 1020.3 hPa | 0 mm | - | 5 W/m² | - |
| 1787954767 | 20° C | 99% | 1019.9 hPa | 0 mm | - | 5 W/m² | - |
| 1787954463 | 20° C | 99% | 1019.7 hPa | 0 mm | - | 5 W/m² | - |
| 1787954162 | 20° C | 99% | 1019.8 hPa | 0 mm | - | 6 W/m² | - |
| 1787953856 | 20° C | 99% | 1019.4 hPa | 0 mm | - | 7 W/m² | - |
| 1787953551 | 20° C | 99% | 1019.1 hPa | 0 mm | - | 8 W/m² | - |
| 1787953250 | 20° C | 98% | 1019 hPa | 0 mm | - | 10 W/m² | - |
| 1787952948 | 20° C | 98% | 1018.4 hPa | 0 mm | - | 11 W/m² | - |
| 1787952643 | 20° C | 98% | 1018.4 hPa | 0 mm | - | 13 W/m² | - |
| 1787952342 | 20° C | 97% | 1018.6 hPa | 1.78 mm | - | 12 W/m² | - |
| 1787952039 | 19.44° C | 96% | 1018.6 hPa | 12.7 mm | - | 11 W/m² | - |
| 1787951738 | 19.44° C | 96% | 1018.7 hPa | 28.7 mm | - | 11 W/m² | - |
| 1787951434 | 19.44° C | 96% | 1018.9 hPa | 56.39 mm | - | 16 W/m² | - |
| 1787951130 | 20° C | 95% | 1018.9 hPa | 59.44 mm | - | 23 W/m² | - |
| 1787950826 | 21.11° C | 89% | 1019.1 hPa | 21.59 mm | - | 19 W/m² | - |
| 1787950521 | 23.89° C | 75% | 1018.9 hPa | 0 mm | - | 10 W/m² | - |
| 1787950217 | 25° C | 68% | 1018.6 hPa | 0 mm | - | 8 W/m² | - |
| 1787949913 | 28.33° C | 71% | 1017.7 hPa | 0 mm | - | 12 W/m² | - |
| 1787949608 | 30.56° C | 72% | 1017.7 hPa | 0 mm | - | 45 W/m² | - |
| 1787949303 | 31.11° C | 69% | 1017.7 hPa | 0 mm | - | 97 W/m² | - |
| 1787948997 | 32.22° C | 65% | 1017.3 hPa | 0 mm | - | 170 W/m² | - |
| 1787948693 | 32.78° C | 60% | 1017.4 hPa | 0 mm | - | 138 W/m² | - |
| 1787948389 | 31.67° C | 62% | 1017.4 hPa | 0 mm | - | 525 W/m² | - |
| 1787948088 | 31.11° C | 66% | 1017.3 hPa | 0 mm | - | 543 W/m² | - |
| 1787947788 | 30.56° C | 66% | 1017.3 hPa | 0 mm | - | 429 W/m² | - |
* Rain latest hour (hover to see other rain measurements)
** Current wind speed in m/s (hover to see current wind gust speed)